createdAt,value
2022-12-25T00:03:34.766Z,1014.322
2022-12-25T00:08:34.557Z,1014.36
2022-12-25T00:13:34.600Z,1014.352
2022-12-25T00:18:34.637Z,1014.271
2022-12-25T00:23:43.393Z,1014.156
2022-12-25T00:28:37.548Z,1014.214
2022-12-25T00:33:34.405Z,1014.309
2022-12-25T00:38:34.411Z,1014.272
2022-12-25T00:43:34.607Z,1014.283
2022-12-25T00:48:34.735Z,1014.286
2022-12-25T00:53:42.963Z,1014.234
2022-12-25T00:58:35.583Z,1014.329
2022-12-25T01:03:34.445Z,1014.344
2022-12-25T01:08:36.112Z,1014.379
2022-12-25T01:13:34.928Z,1014.476
2022-12-25T01:18:34.543Z,1014.44
2022-12-25T01:23:42.895Z,1014.457
2022-12-25T01:28:34.596Z,1014.41
2022-12-25T01:33:35.670Z,1014.428
2022-12-25T01:38:34.619Z,1014.334
2022-12-25T01:43:35.684Z,1014.369
2022-12-25T01:48:36.467Z,1014.421
2022-12-25T01:53:43.658Z,1014.386
2022-12-25T01:58:34.642Z,1014.35
2022-12-25T02:03:34.407Z,1014.471
2022-12-25T02:08:34.678Z,1014.546
2022-12-25T02:13:34.551Z,1014.534
2022-12-25T02:18:38.734Z,1014.468
2022-12-25T02:24:01.658Z,1014.371
2022-12-25T02:28:42.091Z,1014.32
2022-12-25T02:33:49.271Z,1014.257
2022-12-25T02:38:37.041Z,1014.113
2022-12-25T02:43:47.430Z,1014.18
2022-12-25T02:48:47.561Z,1014.077
2022-12-25T02:53:46.817Z,1014.043
2022-12-25T02:58:45.910Z,1013.903
2022-12-25T03:03:48.118Z,1013.916
2022-12-25T03:08:37.839Z,1013.885
2022-12-25T03:13:37.794Z,1013.893
2022-12-25T03:18:35.464Z,1013.763
2022-12-25T03:23:47.690Z,1013.81
2022-12-25T03:28:35.547Z,1013.915
2022-12-25T03:33:45.399Z,1014.017
2022-12-25T03:39:01.847Z,1013.906
2022-12-25T03:43:53.068Z,1013.82
2022-12-25T03:48:50.232Z,1013.77
2022-12-25T03:53:47.834Z,1013.689
2022-12-25T03:58:48.353Z,1013.55
2022-12-25T04:03:45.579Z,1013.572
2022-12-25T04:08:45.518Z,1013.586
2022-12-25T04:13:45.575Z,1013.489
2022-12-25T04:18:45.533Z,1013.596
2022-12-25T04:23:45.496Z,1013.56
2022-12-25T04:28:45.411Z,1013.501
2022-12-25T04:33:45.486Z,1013.657
2022-12-25T04:38:34.327Z,1013.65
2022-12-25T04:43:34.318Z,1013.73
2022-12-25T04:48:36.170Z,1013.676
2022-12-25T04:53:34.224Z,1013.595
2022-12-25T04:58:34.835Z,1013.661
2022-12-25T05:03:34.619Z,1013.53
2022-12-25T05:08:35.428Z,1013.46
2022-12-25T05:13:34.323Z,1013.441
2022-12-25T05:18:34.399Z,1013.419
2022-12-25T05:23:34.639Z,1013.43
2022-12-25T05:28:34.405Z,1013.436
2022-12-25T05:33:34.294Z,1013.444
2022-12-25T05:38:34.415Z,1013.353
2022-12-25T05:43:34.670Z,1013.329
2022-12-25T05:48:34.508Z,1013.377
2022-12-25T05:53:34.380Z,1013.306
2022-12-25T05:58:34.352Z,1013.235
2022-12-25T06:03:34.465Z,1013.137
2022-12-25T06:08:34.358Z,1013.03
2022-12-25T06:13:36.502Z,1012.999
2022-12-25T06:18:34.502Z,1012.945
2022-12-25T06:23:34.517Z,1012.858
2022-12-25T06:28:34.352Z,1012.872
2022-12-25T06:33:34.388Z,1012.887
2022-12-25T06:38:34.645Z,1012.776
2022-12-25T06:43:34.595Z,1012.725
2022-12-25T06:48:34.456Z,1012.793
2022-12-25T06:53:40.272Z,1012.768
2022-12-25T06:58:34.325Z,1012.699
2022-12-25T07:03:34.596Z,1012.734
2022-12-25T07:08:34.338Z,1012.787
2022-12-25T07:13:34.492Z,1012.86
2022-12-25T07:18:34.517Z,1012.879
2022-12-25T07:23:36.923Z,1012.958
2022-12-25T07:28:34.879Z,1012.937
2022-12-25T07:33:34.320Z,1012.843
2022-12-25T07:38:36.717Z,1012.812
2022-12-25T07:43:34.469Z,1012.793
2022-12-25T07:48:35.313Z,1013.045
2022-12-25T07:53:34.389Z,1013.002
2022-12-25T07:58:34.568Z,1012.959
2022-12-25T08:03:35.450Z,1012.801
2022-12-25T08:08:34.561Z,1012.823
2022-12-25T08:13:34.584Z,1012.796
2022-12-25T08:18:34.917Z,1013.138
2022-12-25T08:23:34.385Z,1013.16
2022-12-25T08:28:34.430Z,1013.234
2022-12-25T08:33:34.527Z,1013.249
2022-12-25T08:38:34.298Z,1013.256
2022-12-25T08:43:34.264Z,1013.224
2022-12-25T08:48:34.379Z,1013.15
2022-12-25T08:53:34.295Z,1013.117
2022-12-25T08:58:34.279Z,1013.117
2022-12-25T09:03:35.888Z,1013.19
2022-12-25T09:08:34.349Z,1013.165
2022-12-25T09:13:34.621Z,1013.062
2022-12-25T09:18:34.233Z,1013.149
2022-12-25T09:23:36.188Z,1013.258
2022-12-25T09:28:34.776Z,1013.316
2022-12-25T09:33:34.442Z,1013.309
2022-12-25T09:38:34.548Z,1013.383
2022-12-25T09:43:35.137Z,1013.153
2022-12-25T09:48:37.077Z,1013.2
2022-12-25T09:53:39.405Z,1013.1
2022-12-25T09:58:34.629Z,1013.155
2022-12-25T10:03:46.298Z,1013.217
2022-12-25T10:08:42.836Z,1013.137
2022-12-25T10:13:50.349Z,1013.037
2022-12-25T10:18:45.079Z,1012.983
2022-12-25T10:23:35.259Z,1012.916
2022-12-25T10:28:37.735Z,1012.954
2022-12-25T10:33:34.078Z,1012.933
2022-12-25T10:38:34.388Z,1012.761
2022-12-25T10:43:36.534Z,1012.676
2022-12-25T10:48:37.425Z,1012.639
2022-12-25T10:53:41.398Z,1012.556
2022-12-25T10:58:34.773Z,1012.6
2022-12-25T11:03:36.685Z,1012.558
2022-12-25T11:08:35.339Z,1012.631
2022-12-25T11:13:34.572Z,1012.426
2022-12-25T11:18:38.313Z,1012.251
2022-12-25T11:23:35.586Z,1012.177
2022-12-25T11:28:35.250Z,1012.216
2022-12-25T11:33:37.846Z,1011.675
2022-12-25T11:38:36.698Z,1011.649
2022-12-25T11:43:38.776Z,1011.513
2022-12-25T11:48:36.853Z,1011.514
2022-12-25T11:53:39.534Z,1011.545
2022-12-25T11:58:39.698Z,1011.544
2022-12-25T12:03:36.868Z,1011.48
2022-12-25T12:08:35.127Z,1011.4
2022-12-25T12:13:41.610Z,1011.403
2022-12-25T12:18:37.169Z,1011.133
2022-12-25T12:23:38.570Z,1011.058
2022-12-25T12:28:41.483Z,1011.091
2022-12-25T12:33:38.191Z,1011.155
2022-12-25T12:38:35.220Z,1011.029
2022-12-25T12:43:37.464Z,1010.995
2022-12-25T12:48:40.833Z,1010.982
2022-12-25T12:53:38.094Z,1010.92
2022-12-25T12:58:36.363Z,1010.963
2022-12-25T13:03:43.969Z,1010.849
2022-12-25T13:08:39.614Z,1010.763
2022-12-25T13:13:37.864Z,1010.546
2022-12-25T13:18:34.650Z,1010.361
2022-12-25T13:23:36.077Z,1010.325
2022-12-25T13:28:35.530Z,1010.432
2022-12-25T13:33:34.671Z,1010.413
2022-12-25T13:38:34.916Z,1010.53
2022-12-25T13:43:36.667Z,1010.434
2022-12-25T13:48:34.883Z,1010.517
2022-12-25T13:53:36.175Z,1010.61
2022-12-25T13:58:34.992Z,1010.526
2022-12-25T14:03:37.203Z,1010.455
2022-12-25T14:08:35.788Z,1010.491
2022-12-25T14:13:35.396Z,1010.453
2022-12-25T14:18:35.182Z,1010.452
2022-12-25T14:23:41.424Z,1010.514
2022-12-25T14:28:34.303Z,1010.498
2022-12-25T14:33:39.052Z,1010.524
2022-12-25T14:38:36.236Z,1010.456
2022-12-25T14:43:36.119Z,1010.496
2022-12-25T14:48:34.747Z,1010.329
2022-12-25T14:53:37.678Z,1010.227
2022-12-25T14:58:35.609Z,1010.182
2022-12-25T15:03:35.311Z,1010.362
2022-12-25T15:08:35.000Z,1010.444
2022-12-25T15:13:34.724Z,1010.413
2022-12-25T15:18:35.852Z,1010.362
2022-12-25T15:23:34.146Z,1010.336
2022-12-25T15:28:34.399Z,1010.32
2022-12-25T15:33:35.401Z,1010.408
2022-12-25T15:38:36.509Z,1010.438
2022-12-25T15:43:41.480Z,1010.381
2022-12-25T15:48:35.348Z,1010.344
2022-12-25T15:53:34.153Z,1010.194
2022-12-25T15:58:34.107Z,1010.226
2022-12-25T16:03:34.224Z,1010.24
2022-12-25T16:08:34.070Z,1010.275
2022-12-25T16:13:34.246Z,1010.314
2022-12-25T16:18:34.413Z,1010.175
2022-12-25T16:23:34.386Z,1010.133
2022-12-25T16:28:34.161Z,1009.937
2022-12-25T16:33:36.718Z,1009.98
2022-12-25T16:38:34.500Z,1009.899
2022-12-25T16:43:34.339Z,1009.843
2022-12-25T16:48:34.117Z,1009.795
2022-12-25T16:53:34.344Z,1009.71
2022-12-25T16:58:35.345Z,1009.676
2022-12-25T17:03:34.816Z,1009.763
2022-12-25T17:08:34.594Z,1009.802
2022-12-25T17:13:34.024Z,1009.872
2022-12-25T17:18:34.430Z,1009.903
2022-12-25T17:23:34.313Z,1009.883
2022-12-25T17:28:35.879Z,1009.858
2022-12-25T17:33:35.583Z,1009.788
2022-12-25T17:38:34.326Z,1009.819
2022-12-25T17:43:34.043Z,1009.818
2022-12-25T17:48:35.834Z,1009.885
2022-12-25T17:53:34.302Z,1009.941
2022-12-25T17:58:34.635Z,1009.846
2022-12-25T18:03:34.466Z,1009.829
2022-12-25T18:08:39.266Z,1009.823
2022-12-25T18:13:34.244Z,1009.78
2022-12-25T18:18:34.280Z,1009.737
2022-12-25T18:23:34.466Z,1009.728
2022-12-25T18:28:34.136Z,1009.827
2022-12-25T18:33:34.227Z,1009.814
2022-12-25T18:38:36.654Z,1009.702
2022-12-25T18:43:52.749Z,1009.815
2022-12-25T18:48:34.647Z,1010.009
2022-12-25T18:53:34.009Z,1010.127
2022-12-25T18:58:34.253Z,1010.192
2022-12-25T19:03:34.228Z,1010.095
2022-12-25T19:08:34.066Z,1010.012
2022-12-25T19:13:36.397Z,1009.897
2022-12-25T19:18:36.986Z,1009.953
2022-12-25T19:23:33.902Z,1009.882
2022-12-25T19:28:34.156Z,1009.774
2022-12-25T19:33:34.699Z,1009.922
2022-12-25T19:38:34.239Z,1009.852
2022-12-25T19:43:35.636Z,1009.907
2022-12-25T19:48:34.499Z,1009.931
2022-12-25T19:53:35.326Z,1010.07
2022-12-25T19:58:34.045Z,1010.085
2022-12-25T20:03:36.506Z,1010.12
2022-12-25T20:08:36.298Z,1010.172
2022-12-25T20:13:33.879Z,1010.209
2022-12-25T20:18:36.513Z,1010.083
2022-12-25T20:23:35.263Z,1010.128
2022-12-25T20:28:34.476Z,1009.99
2022-12-25T20:33:34.353Z,1009.932
2022-12-25T20:38:34.875Z,1009.901
2022-12-25T20:43:36.773Z,1009.845
2022-12-25T20:48:34.182Z,1009.948
2022-12-25T20:53:34.848Z,1010.049
2022-12-25T20:58:35.845Z,1009.955
2022-12-25T21:03:34.024Z,1009.962
2022-12-25T21:08:34.452Z,1009.922
2022-12-25T21:13:35.091Z,1009.997
2022-12-25T21:18:33.931Z,1010.034
2022-12-25T21:23:34.222Z,1010.134
2022-12-25T21:28:35.687Z,1010.094
2022-12-25T21:33:45.274Z,1010.165
2022-12-25T21:38:33.963Z,1010.219
2022-12-25T21:43:33.982Z,1010.225
2022-12-25T21:48:39.221Z,1010.258
2022-12-25T21:53:34.479Z,1010.231
2022-12-25T21:58:34.083Z,1010.364
2022-12-25T22:03:34.034Z,1010.451
2022-12-25T22:08:36.970Z,1010.366
2022-12-25T22:13:45.181Z,1010.242
2022-12-25T22:18:45.215Z,1010.021
2022-12-25T22:23:35.532Z,1010.073
2022-12-25T22:28:34.073Z,1010.053
2022-12-25T22:33:36.401Z,1010.093
2022-12-25T22:38:34.907Z,1010.088
2022-12-25T22:44:14.515Z,1009.997
2022-12-25T22:48:34.120Z,1010.008
2022-12-25T22:53:34.456Z,1009.979
2022-12-25T22:58:33.948Z,1009.885
2022-12-25T23:03:35.533Z,1009.879
2022-12-25T23:08:33.932Z,1009.96
2022-12-25T23:14:01.707Z,1009.962
2022-12-25T23:18:45.344Z,1009.949
2022-12-25T23:23:45.399Z,1009.794
2022-12-25T23:28:45.317Z,1009.751
2022-12-25T23:33:36.000Z,1009.742
2022-12-25T23:38:34.270Z,1009.786
2022-12-25T23:43:34.118Z,1009.88
2022-12-25T23:48:36.161Z,1009.979
2022-12-25T23:53:34.433Z,1010.042
2022-12-25T23:58:33.830Z,1010.081
